createdAt,value
2022-08-05T00:00:54.807Z,26.65
2022-08-05T00:01:54.774Z,26.59
2022-08-05T00:02:55.778Z,26.59
2022-08-05T00:03:54.711Z,26.56
2022-08-05T00:04:55.174Z,26.56
2022-08-05T00:06:04.959Z,26.51
2022-08-05T00:06:55.680Z,26.50
2022-08-05T00:08:00.082Z,26.47
2022-08-05T00:08:55.663Z,26.46
2022-08-05T00:09:54.698Z,26.44
2022-08-05T00:10:54.632Z,26.39
2022-08-05T00:11:55.769Z,26.36
2022-08-05T00:12:56.841Z,26.35
2022-08-05T00:13:54.609Z,26.35
2022-08-05T00:14:54.589Z,26.31
2022-08-05T00:16:00.360Z,26.28
2022-08-05T00:16:55.559Z,26.27
2022-08-05T00:17:54.540Z,26.27
2022-08-05T00:18:54.541Z,26.24
2022-08-05T00:20:01.789Z,26.23
2022-08-05T00:20:55.501Z,26.24
2022-08-05T00:21:54.496Z,26.27
2022-08-05T00:22:58.451Z,26.24
2022-08-05T00:24:09.917Z,26.23
2022-08-05T00:24:55.449Z,26.21
2022-08-05T00:25:54.451Z,26.21
2022-08-05T00:26:54.441Z,26.20
2022-08-05T00:27:54.419Z,26.19
2022-08-05T00:28:54.422Z,26.16
2022-08-05T00:29:54.384Z,26.16
2022-08-05T00:30:54.392Z,26.12
2022-08-05T00:32:12.724Z,26.09
2022-08-05T00:32:55.357Z,26.09
2022-08-05T00:34:56.408Z,26.08
2022-08-05T00:35:06.826Z,26.06
2022-08-05T00:36:14.988Z,26.06
2022-08-05T00:37:09.839Z,26.06
2022-08-05T00:37:55.288Z,26.06
2022-08-05T00:38:54.331Z,26.04
2022-08-05T00:39:58.469Z,26.03
2022-08-05T00:40:54.240Z,26.01
2022-08-05T00:41:55.628Z,25.98
2022-08-05T00:42:54.308Z,25.97
2022-08-05T00:43:54.208Z,25.96
2022-08-05T00:44:54.191Z,25.94
2022-08-05T00:45:54.182Z,25.93
2022-08-05T00:47:02.059Z,25.94
2022-08-05T00:47:57.812Z,25.91
2022-08-05T00:48:55.139Z,25.93
2022-08-05T00:49:54.130Z,25.90
2022-08-05T00:50:54.180Z,25.86
2022-08-05T00:51:54.118Z,25.85
2022-08-05T00:52:55.160Z,25.82
2022-08-05T00:54:02.658Z,25.79
2022-08-05T00:54:55.070Z,25.74
2022-08-05T00:55:54.154Z,25.69
2022-08-05T00:56:54.079Z,25.61
2022-08-05T00:57:58.063Z,25.54
2022-08-05T00:58:55.079Z,25.49
2022-08-05T00:59:54.005Z,25.46
2022-08-05T01:00:54.106Z,25.48
2022-08-05T01:01:54.031Z,25.48
2022-08-05T01:02:53.984Z,25.44
2022-08-05T01:03:53.952Z,25.38
2022-08-05T01:04:54.025Z,25.35
2022-08-05T01:05:54.375Z,25.35
2022-08-05T01:06:53.928Z,25.31
2022-08-05T01:08:40.803Z,25.30
2022-08-05T01:08:54.910Z,25.27
2022-08-05T01:09:55.455Z,25.29
2022-08-05T01:10:53.873Z,25.29
2022-08-05T01:11:53.852Z,25.26
2022-08-05T01:12:54.277Z,25.22
2022-08-05T01:13:58.861Z,25.17
2022-08-05T01:14:53.825Z,25.16
2022-08-05T01:15:53.803Z,25.12
2022-08-05T01:16:53.790Z,25.08
2022-08-05T01:17:54.314Z,25.02
2022-08-05T01:18:56.379Z,24.94
2022-08-05T01:20:00.977Z,24.94
2022-08-05T01:20:54.742Z,24.98
2022-08-05T01:21:53.722Z,24.99
2022-08-05T01:22:53.711Z,24.93
2022-08-05T01:23:53.703Z,24.94
2022-08-05T01:24:53.722Z,24.97
2022-08-05T01:25:54.076Z,24.98
2022-08-05T01:26:53.670Z,24.97
2022-08-05T01:27:55.905Z,24.94
2022-08-05T01:28:53.641Z,24.93
2022-08-05T01:29:53.631Z,24.97
2022-08-05T01:30:55.360Z,24.98
2022-08-05T01:31:53.597Z,25.01
2022-08-05T01:32:53.589Z,24.99
2022-08-05T01:33:53.904Z,24.90
2022-08-05T01:34:53.568Z,24.89
2022-08-05T01:35:53.599Z,24.89
2022-08-05T01:36:53.536Z,24.92
2022-08-05T01:37:54.676Z,24.90
2022-08-05T01:38:53.577Z,24.90
2022-08-05T01:39:53.539Z,24.89
2022-08-05T01:40:53.500Z,24.86
2022-08-05T01:41:53.505Z,24.80
2022-08-05T01:42:53.460Z,24.71
2022-08-05T01:43:53.442Z,24.67
2022-08-05T01:44:54.233Z,24.66
2022-08-05T01:45:56.409Z,24.66
2022-08-05T01:46:53.410Z,24.67
2022-08-05T01:47:54.482Z,24.66
2022-08-05T01:48:53.378Z,24.61
2022-08-05T01:50:01.796Z,24.60
2022-08-05T01:50:54.379Z,24.53
2022-08-05T01:51:53.341Z,24.52
2022-08-05T01:52:53.331Z,24.48
2022-08-05T01:53:58.004Z,24.49
2022-08-05T01:54:54.365Z,24.48
2022-08-05T01:55:53.309Z,24.48
2022-08-05T01:58:09.563Z,24.45
2022-08-05T01:58:12.460Z,24.45
2022-08-05T01:58:54.260Z,24.42
2022-08-05T01:59:53.250Z,24.41
2022-08-05T02:00:53.261Z,24.36
2022-08-05T02:01:54.770Z,24.36
2022-08-05T02:02:55.229Z,24.36
2022-08-05T02:03:53.236Z,24.33
2022-08-05T02:04:53.219Z,24.33
2022-08-05T02:05:53.388Z,24.30
2022-08-05T02:06:53.180Z,24.27
2022-08-05T02:08:00.233Z,24.27
2022-08-05T02:08:58.221Z,24.24
2022-08-05T02:09:53.107Z,24.24
2022-08-05T02:10:53.101Z,24.24
2022-08-05T02:11:53.098Z,24.27
2022-08-05T02:12:53.092Z,24.26
2022-08-05T02:13:53.762Z,24.24
2022-08-05T02:14:53.243Z,24.23
2022-08-05T02:15:53.037Z,24.21
2022-08-05T02:16:53.384Z,24.19
2022-08-05T02:18:31.170Z,24.23
2022-08-05T02:18:54.002Z,24.19
2022-08-05T02:19:53.008Z,24.19
2022-08-05T02:20:52.979Z,24.16
2022-08-05T02:21:52.959Z,24.16
2022-08-05T02:22:52.954Z,24.19
2022-08-05T02:23:52.937Z,24.15
2022-08-05T02:24:52.918Z,24.12
2022-08-05T02:25:52.910Z,24.11
2022-08-05T02:26:54.531Z,24.11
2022-08-05T02:27:59.289Z,24.15
2022-08-05T02:28:53.868Z,24.14
2022-08-05T02:29:58.459Z,24.12
2022-08-05T02:30:54.368Z,24.12
2022-08-05T02:31:52.847Z,24.11
2022-08-05T02:32:52.833Z,24.11
2022-08-05T02:33:57.358Z,24.14
2022-08-05T02:34:54.761Z,24.12
2022-08-05T02:36:00.594Z,24.15
2022-08-05T02:36:53.794Z,24.16
2022-08-05T02:37:54.055Z,24.15
2022-08-05T02:38:53.853Z,24.11
2022-08-05T02:39:52.825Z,24.11
2022-08-05T02:40:52.723Z,24.09
2022-08-05T02:42:00.440Z,24.08
2022-08-05T02:42:54.014Z,24.08
2022-08-05T02:44:06.432Z,24.06
2022-08-05T02:44:53.684Z,24.08
2022-08-05T02:45:53.949Z,24.06
2022-08-05T02:46:59.752Z,24.06
2022-08-05T02:48:06.999Z,24.05
2022-08-05T02:48:53.629Z,24.06
2022-08-05T02:49:52.616Z,24.05
2022-08-05T02:50:52.608Z,24.02
2022-08-05T02:52:03.987Z,24.04
2022-08-05T02:52:53.584Z,24.05
2022-08-05T02:53:54.712Z,24.08
2022-08-05T02:54:52.549Z,24.08
2022-08-05T02:56:00.004Z,24.06
2022-08-05T02:56:53.527Z,24.04
2022-08-05T02:58:11.080Z,24.02
2022-08-05T02:58:53.500Z,24.02
2022-08-05T02:59:52.490Z,24.00
2022-08-05T03:00:52.474Z,24.02
2022-08-05T03:01:52.487Z,24.00
2022-08-05T03:02:52.506Z,24.00
2022-08-05T03:04:02.543Z,23.99
2022-08-05T03:04:53.517Z,23.99
2022-08-05T03:06:53.646Z,23.97
2022-08-05T03:06:59.405Z,23.96
2022-08-05T03:08:04.565Z,23.97
2022-08-05T03:08:53.395Z,23.97
2022-08-05T03:09:52.360Z,23.97
2022-08-05T03:11:53.641Z,23.99
2022-08-05T03:11:58.025Z,23.97
2022-08-05T03:12:53.331Z,23.99
2022-08-05T03:14:03.084Z,23.97
2022-08-05T03:14:53.298Z,23.99
2022-08-05T03:15:52.288Z,24.00
2022-08-05T03:16:53.517Z,23.97
2022-08-05T03:17:54.150Z,23.99
2022-08-05T03:18:52.263Z,24.02
2022-08-05T03:19:52.261Z,24.00
2022-08-05T03:20:52.224Z,24.04
2022-08-05T03:21:52.237Z,24.04
2022-08-05T03:22:52.198Z,24.04
2022-08-05T03:23:52.201Z,24.06
2022-08-05T03:24:52.355Z,24.05
2022-08-05T03:26:04.922Z,24.04
2022-08-05T03:26:53.167Z,24.04
2022-08-05T03:27:59.381Z,24.04
2022-08-05T03:28:53.143Z,24.02
2022-08-05T03:30:07.553Z,24.02
2022-08-05T03:30:53.109Z,23.97
2022-08-05T03:31:57.006Z,23.97
2022-08-05T03:32:53.076Z,23.94
2022-08-05T03:33:52.961Z,23.93
2022-08-05T03:34:52.049Z,23.96
2022-08-05T03:35:52.049Z,23.96
2022-08-05T03:36:52.322Z,23.94
2022-08-05T03:37:52.007Z,23.93
2022-08-05T03:38:54.201Z,23.92
2022-08-05T03:39:58.600Z,23.93
2022-08-05T03:40:53.030Z,23.93
2022-08-05T03:41:52.629Z,23.92
2022-08-05T03:42:52.901Z,23.92
2022-08-05T03:44:08.930Z,23.92
2022-08-05T03:44:52.917Z,23.90
2022-08-05T03:45:58.117Z,23.93
2022-08-05T03:46:52.937Z,23.96
2022-08-05T03:47:51.879Z,23.97
2022-08-05T03:48:52.898Z,23.97
2022-08-05T03:49:52.536Z,24.00
2022-08-05T03:50:51.836Z,23.99
2022-08-05T03:52:36.558Z,24.00
2022-08-05T03:55:00.017Z,24.02
2022-08-05T03:55:52.227Z,24.00
2022-08-05T03:55:52.939Z,24.00
2022-08-05T03:56:11.707Z,24.00
2022-08-05T03:56:52.773Z,24.02
2022-08-05T03:57:51.747Z,24.05
2022-08-05T03:58:51.735Z,24.05
2022-08-05T03:59:54.834Z,24.05
2022-08-05T04:00:51.748Z,24.05
2022-08-05T04:01:51.896Z,24.06
2022-08-05T04:02:57.532Z,24.05
2022-08-05T04:04:08.823Z,24.06
2022-08-05T04:04:52.666Z,24.05
2022-08-05T04:05:51.649Z,24.02
2022-08-05T04:06:51.788Z,24.06
2022-08-05T04:07:58.701Z,24.06
2022-08-05T04:08:52.618Z,24.08
2022-08-05T04:09:53.120Z,24.11
2022-08-05T04:10:51.596Z,24.09
2022-08-05T04:11:52.746Z,24.11
2022-08-05T04:12:51.566Z,24.12
2022-08-05T04:13:53.417Z,24.14
2022-08-05T04:14:51.534Z,24.12
2022-08-05T04:16:02.858Z,24.15
2022-08-05T04:16:52.507Z,24.18
2022-08-05T04:17:57.180Z,24.18
2022-08-05T04:18:54.373Z,24.18
2022-08-05T04:19:54.455Z,24.18
2022-08-05T04:20:52.461Z,24.19
2022-08-05T04:22:09.301Z,24.23
2022-08-05T04:22:52.439Z,24.23
2022-08-05T04:24:04.861Z,24.23
2022-08-05T04:24:53.153Z,24.23
2022-08-05T04:26:00.310Z,24.23
2022-08-05T04:26:52.386Z,24.24
2022-08-05T04:27:57.200Z,24.24
2022-08-05T04:28:52.376Z,24.23
2022-08-05T04:29:51.351Z,24.26
2022-08-05T04:30:51.339Z,24.24
2022-08-05T04:31:51.328Z,24.24
2022-08-05T04:32:51.319Z,24.27
2022-08-05T04:34:19.125Z,24.29
2022-08-05T04:34:52.295Z,24.30
2022-08-05T04:36:16.798Z,24.31
2022-08-05T04:36:52.329Z,24.34
2022-08-05T04:38:01.430Z,24.37
2022-08-05T04:38:52.253Z,24.41
2022-08-05T04:39:52.986Z,24.44
2022-08-05T04:40:51.207Z,24.45
2022-08-05T04:41:51.484Z,24.46
2022-08-05T04:42:51.179Z,24.46
2022-08-05T04:43:52.188Z,24.51
2022-08-05T04:44:51.176Z,24.49
2022-08-05T04:45:55.083Z,24.49
2022-08-05T04:46:51.128Z,24.48
2022-08-05T04:47:51.129Z,24.48
2022-08-05T04:48:51.660Z,24.46
2022-08-05T04:50:01.623Z,24.49
2022-08-05T04:51:02.795Z,24.55
2022-08-05T04:51:58.262Z,24.60
2022-08-05T04:52:52.058Z,24.67
2022-08-05T04:53:51.059Z,24.70
2022-08-05T04:54:51.055Z,24.74
2022-08-05T04:56:33.446Z,24.75
2022-08-05T04:56:55.271Z,24.79
2022-08-05T04:57:54.288Z,24.79
2022-08-05T04:58:50.994Z,24.75
2022-08-05T04:59:50.959Z,24.79
2022-08-05T05:00:51.093Z,24.82
2022-08-05T05:02:06.711Z,24.84
2022-08-05T05:02:52.557Z,24.87
2022-08-05T05:03:50.920Z,24.89
2022-08-05T05:04:51.432Z,24.89
2022-08-05T05:06:39.187Z,24.92
2022-08-05T05:06:57.665Z,24.92
2022-08-05T05:07:52.853Z,24.94
2022-08-05T05:08:50.860Z,24.93
2022-08-05T05:09:50.836Z,24.92
2022-08-05T05:10:56.216Z,24.92
2022-08-05T05:11:54.166Z,24.93
2022-08-05T05:12:51.799Z,24.90
2022-08-05T05:13:50.785Z,24.89
2022-08-05T05:14:51.467Z,24.84
2022-08-05T05:15:57.395Z,24.83
2022-08-05T05:16:51.747Z,24.84
2022-08-05T05:17:56.728Z,24.87
2022-08-05T05:19:16.338Z,24.89
2022-08-05T05:19:51.712Z,24.92
2022-08-05T05:20:50.702Z,24.86
2022-08-05T05:21:50.706Z,24.83
2022-08-05T05:22:50.678Z,24.83
2022-08-05T05:24:04.292Z,24.82
2022-08-05T05:24:57.336Z,24.83
2022-08-05T05:25:51.634Z,24.86
2022-08-05T05:26:51.909Z,24.87
2022-08-05T05:27:53.729Z,24.86
2022-08-05T05:28:51.677Z,24.84
2022-08-05T05:30:04.189Z,24.89
2022-08-05T05:30:51.568Z,24.93
2022-08-05T05:31:51.074Z,24.93
2022-08-05T05:32:50.560Z,24.97
2022-08-05T05:33:58.900Z,24.98
2022-08-05T05:34:52.469Z,25.01
2022-08-05T05:35:50.510Z,25.01
2022-08-05T05:36:51.166Z,25.04
2022-08-05T05:37:59.558Z,25.08
2022-08-05T05:38:51.476Z,25.09
2022-08-05T05:39:50.502Z,25.11
2022-08-05T05:40:51.567Z,25.14
2022-08-05T05:41:53.980Z,25.14
2022-08-05T05:42:50.430Z,25.12
2022-08-05T05:43:56.722Z,25.16
2022-08-05T05:44:51.386Z,25.12
2022-08-05T05:45:50.389Z,25.17
2022-08-05T05:46:51.176Z,25.17
2022-08-05T05:48:07.047Z,25.19
2022-08-05T05:48:51.491Z,25.19
2022-08-05T05:49:52.532Z,25.19
2022-08-05T05:50:51.356Z,25.19
2022-08-05T05:51:50.803Z,25.19
2022-08-05T05:52:50.290Z,25.16
2022-08-05T05:53:57.883Z,25.14
2022-08-05T05:54:51.346Z,25.17
2022-08-05T05:55:51.395Z,25.20
2022-08-05T05:56:51.255Z,25.19
2022-08-05T05:57:53.016Z,25.14
2022-08-05T05:58:50.246Z,25.14
2022-08-05T05:59:50.206Z,25.17
2022-08-05T06:00:50.220Z,25.14
2022-08-05T06:01:57.631Z,25.12
2022-08-05T06:02:51.154Z,25.16
2022-08-05T06:04:01.255Z,25.19
2022-08-05T06:04:51.191Z,25.19
2022-08-05T06:05:53.980Z,25.16
2022-08-05T06:06:50.113Z,25.12
2022-08-05T06:07:57.511Z,25.04
2022-08-05T06:08:51.087Z,25.01
2022-08-05T06:10:01.338Z,25.01
2022-08-05T06:10:52.865Z,24.93
2022-08-05T06:12:01.070Z,24.87
2022-08-05T06:12:51.043Z,24.90
2022-08-05T06:13:50.513Z,24.87
2022-08-05T06:14:50.042Z,24.90
2022-08-05T06:16:28.784Z,24.66
2022-08-05T06:16:50.991Z,24.63
2022-08-05T06:17:52.977Z,24.64
2022-08-05T06:18:49.959Z,24.61
2022-08-05T06:19:57.220Z,24.59
2022-08-05T06:20:54.186Z,24.55
2022-08-05T06:21:50.034Z,24.55
2022-08-05T06:22:49.928Z,24.46
2022-08-05T06:23:49.953Z,24.48
2022-08-05T06:24:49.882Z,24.52
2022-08-05T06:26:12.494Z,24.56
2022-08-05T06:26:52.251Z,24.60
2022-08-05T06:28:11.727Z,24.55
2022-08-05T06:28:50.824Z,24.49
2022-08-05T06:30:04.622Z,24.48
2022-08-05T06:30:50.804Z,24.51
2022-08-05T06:31:49.798Z,24.42
2022-08-05T06:32:50.685Z,24.37
2022-08-05T06:34:07.136Z,24.39
2022-08-05T06:34:53.618Z,24.45
2022-08-05T06:36:07.066Z,24.48
2022-08-05T06:36:57.823Z,24.49
2022-08-05T06:37:57.764Z,24.60
2022-08-05T06:38:50.695Z,24.71
2022-08-05T06:39:49.686Z,24.75
2022-08-05T06:40:49.696Z,24.82
2022-08-05T06:41:49.676Z,24.80
2022-08-05T06:42:52.049Z,24.80
2022-08-05T06:43:57.714Z,24.74
2022-08-05T06:44:50.635Z,24.60
2022-08-05T06:46:06.802Z,24.46
2022-08-05T06:46:51.203Z,24.34
2022-08-05T06:48:37.107Z,24.29
2022-08-05T06:48:56.683Z,24.31
2022-08-05T06:50:00.632Z,24.37
2022-08-05T06:50:50.549Z,24.44
2022-08-05T06:51:49.545Z,24.49
2022-08-05T06:53:03.528Z,24.51
2022-08-05T06:53:53.524Z,24.60
2022-08-05T06:54:52.140Z,24.55
2022-08-05T06:55:49.487Z,24.59
2022-08-05T06:56:54.840Z,24.51
2022-08-05T06:57:57.327Z,24.52
2022-08-05T06:58:50.439Z,24.49
2022-08-05T06:59:55.079Z,24.49
2022-08-05T07:00:50.482Z,24.53
2022-08-05T07:01:52.789Z,24.59
2022-08-05T07:02:53.690Z,24.59
2022-08-05T07:03:49.397Z,24.67
2022-08-05T07:04:49.379Z,24.71
2022-08-05T07:05:49.372Z,24.87
2022-08-05T07:06:50.260Z,25.02
2022-08-05T07:07:49.353Z,25.09
2022-08-05T07:08:51.924Z,25.16
2022-08-05T07:09:58.358Z,25.20
2022-08-05T07:10:52.989Z,25.23
2022-08-05T07:11:51.708Z,25.31
2022-08-05T07:12:49.396Z,25.27
2022-08-05T07:13:59.331Z,25.19
2022-08-05T07:14:50.266Z,25.14
2022-08-05T07:16:01.023Z,25.11
2022-08-05T07:17:59.044Z,25.09
2022-08-05T07:18:01.402Z,25.07
2022-08-05T07:18:50.193Z,25.11
2022-08-05T07:20:50.179Z,24.98
2022-08-05T07:22:00.058Z,24.94
2022-08-05T07:22:50.160Z,24.97
2022-08-05T07:23:50.585Z,24.92
2022-08-05T07:24:52.453Z,24.94
2022-08-05T07:25:55.009Z,24.94
2022-08-05T07:26:50.097Z,24.80
2022-08-05T07:27:57.160Z,24.75
2022-08-05T07:28:50.077Z,24.70
2022-08-05T07:30:27.780Z,24.70
2022-08-05T07:30:52.962Z,24.74
2022-08-05T07:31:54.499Z,24.77
2022-08-05T07:32:51.040Z,24.80
2022-08-05T07:33:49.016Z,24.82
2022-08-05T07:34:48.996Z,24.89
2022-08-05T07:36:04.001Z,24.92
2022-08-05T07:36:51.316Z,24.92
2022-08-05T07:37:48.966Z,24.93
2022-08-05T07:38:49.163Z,24.87
2022-08-05T07:40:26.222Z,24.71
2022-08-05T07:40:55.533Z,24.60
2022-08-05T07:42:14.383Z,24.49
2022-08-05T07:42:49.906Z,24.45
2022-08-05T07:43:48.875Z,24.46
2022-08-05T07:44:48.872Z,24.51
2022-08-05T07:45:56.993Z,24.51
2022-08-05T07:46:50.399Z,24.49
2022-08-05T07:47:48.836Z,24.49
2022-08-05T07:49:04.225Z,24.51
2022-08-05T07:49:54.416Z,24.46
2022-08-05T07:50:49.807Z,24.42
2022-08-05T07:51:54.344Z,24.34
2022-08-05T07:52:49.787Z,24.27
2022-08-05T07:53:50.409Z,24.27
2022-08-05T07:54:49.228Z,24.21
2022-08-05T07:56:06.153Z,24.19
2022-08-05T07:57:02.477Z,24.21
2022-08-05T07:57:56.248Z,24.24
2022-08-05T07:58:57.838Z,24.30
2022-08-05T07:59:49.675Z,24.31
2022-08-05T08:00:48.728Z,24.34
2022-08-05T08:01:52.475Z,24.31
2022-08-05T08:03:14.062Z,24.30
2022-08-05T08:03:51.361Z,24.30
2022-08-05T08:04:49.425Z,24.24
2022-08-05T08:05:49.825Z,24.18
2022-08-05T08:06:48.617Z,24.12
2022-08-05T08:07:58.953Z,24.11
2022-08-05T08:08:49.583Z,24.04
2022-08-05T08:09:48.676Z,24.00
2022-08-05T08:10:48.892Z,24.02
2022-08-05T08:11:58.994Z,23.99
2022-08-05T08:12:50.019Z,23.99
2022-08-05T08:14:00.399Z,23.99
2022-08-05T08:14:49.503Z,24.06
2022-08-05T08:16:34.791Z,24.11
2022-08-05T08:16:51.229Z,24.16
2022-08-05T08:17:52.458Z,24.21
2022-08-05T08:18:49.887Z,24.27
2022-08-05T08:20:22.441Z,24.30
2022-08-05T08:21:02.504Z,24.34
2022-08-05T08:21:49.405Z,24.44
2022-08-05T08:22:48.406Z,24.53
2022-08-05T08:24:02.892Z,24.70
2022-08-05T08:24:51.945Z,24.80
2022-08-05T08:26:00.854Z,24.84
2022-08-05T08:26:49.346Z,24.84
2022-08-05T08:27:51.225Z,24.84
2022-08-05T08:28:59.094Z,24.87
2022-08-05T08:30:05.067Z,24.84
2022-08-05T08:30:49.675Z,24.84
2022-08-05T08:31:48.513Z,24.84
2022-08-05T08:32:48.325Z,24.87
2022-08-05T08:33:51.759Z,24.84
2022-08-05T08:34:48.230Z,24.87
2022-08-05T08:35:52.786Z,24.83
2022-08-05T08:36:54.008Z,24.77
2022-08-05T08:37:53.550Z,24.77
2022-08-05T08:38:53.250Z,24.77
2022-08-05T08:39:49.754Z,24.74
2022-08-05T08:40:51.619Z,24.71
2022-08-05T08:41:52.593Z,24.67
2022-08-05T08:42:51.064Z,24.74
2022-08-05T08:45:18.465Z,24.77
2022-08-05T08:45:24.099Z,24.75
2022-08-05T08:45:49.116Z,24.75
2022-08-05T08:46:48.096Z,24.82
2022-08-05T08:48:07.495Z,24.87
2022-08-05T08:49:07.737Z,24.92
2022-08-05T08:50:07.708Z,24.93
2022-08-05T08:51:03.208Z,24.93
2022-08-05T08:52:03.192Z,24.89
2022-08-05T08:52:51.716Z,24.83
2022-08-05T08:53:48.006Z,24.70
2022-08-05T08:54:47.989Z,24.66
2022-08-05T08:56:03.731Z,24.60
2022-08-05T08:56:49.616Z,24.53
2022-08-05T08:57:58.096Z,24.49
2022-08-05T08:58:48.963Z,24.52
2022-08-05T08:59:48.981Z,24.53
2022-08-05T09:00:48.000Z,24.36
2022-08-05T09:01:57.314Z,24.21
2022-08-05T09:02:48.882Z,24.09
2022-08-05T09:03:48.229Z,23.99
2022-08-05T09:05:16.786Z,23.99
2022-08-05T09:06:07.668Z,24.00
2022-08-05T09:06:49.963Z,23.99
2022-08-05T09:07:56.713Z,24.02
2022-08-05T09:08:48.792Z,24.08
2022-08-05T09:09:47.786Z,24.12
2022-08-05T09:10:47.795Z,24.18
2022-08-05T09:11:51.250Z,24.15
2022-08-05T09:12:50.924Z,24.16
2022-08-05T09:14:10.203Z,24.23
2022-08-05T09:14:56.432Z,24.26
2022-08-05T09:15:48.714Z,24.27
2022-08-05T09:16:48.965Z,24.24
2022-08-05T09:17:49.617Z,24.27
2022-08-05T09:18:47.665Z,24.33
2022-08-05T09:20:01.748Z,24.36
2022-08-05T09:20:48.655Z,24.33
2022-08-05T09:22:22.079Z,24.29
2022-08-05T09:22:51.656Z,24.30
2022-08-05T09:23:47.605Z,24.41
2022-08-05T09:24:47.698Z,24.53
2022-08-05T09:26:02.122Z,24.64
2022-08-05T09:26:48.580Z,24.79
2022-08-05T09:28:05.054Z,24.82
2022-08-05T09:28:48.541Z,24.86
2022-08-05T09:29:47.940Z,24.89
2022-08-05T09:30:47.537Z,25.02
2022-08-05T09:32:40.352Z,25.05
2022-08-05T09:32:48.495Z,25.04
2022-08-05T09:33:47.494Z,24.98
2022-08-05T09:34:47.507Z,25.02
2022-08-05T09:35:47.498Z,25.02
2022-08-05T09:36:54.655Z,24.98
2022-08-05T09:38:17.090Z,24.92
2022-08-05T09:38:48.408Z,24.84
2022-08-05T09:39:52.320Z,24.89
2022-08-05T09:40:52.625Z,24.92
2022-08-05T09:41:56.303Z,24.84
2022-08-05T09:42:48.483Z,24.82
2022-08-05T09:43:49.429Z,24.83
2022-08-05T09:44:50.564Z,24.86
2022-08-05T09:46:06.860Z,24.83
2022-08-05T09:46:53.484Z,24.80
2022-08-05T09:47:56.255Z,24.82
2022-08-05T09:48:55.406Z,24.77
2022-08-05T09:50:01.959Z,24.75
2022-08-05T09:50:48.266Z,24.74
2022-08-05T09:51:49.540Z,24.68
2022-08-05T09:52:47.295Z,24.61
2022-08-05T09:53:54.744Z,24.60
2022-08-05T09:54:48.216Z,24.56
2022-08-05T09:55:57.336Z,24.59
2022-08-05T09:56:51.825Z,24.52
2022-08-05T09:57:47.263Z,24.49
2022-08-05T09:58:47.459Z,24.45
2022-08-05T09:59:47.189Z,24.33
2022-08-05T10:00:47.147Z,24.21
2022-08-05T10:01:47.147Z,24.11
2022-08-05T10:02:47.184Z,24.02
2022-08-05T10:03:58.701Z,23.97
2022-08-05T10:04:48.097Z,23.96
2022-08-05T10:05:47.081Z,23.97
2022-08-05T10:06:54.909Z,24.00
2022-08-05T10:08:10.581Z,24.00
2022-08-05T10:08:50.371Z,24.04
2022-08-05T10:09:48.024Z,24.11
2022-08-05T10:10:48.286Z,24.16
2022-08-05T10:11:47.067Z,24.19
2022-08-05T10:12:49.283Z,24.24
2022-08-05T10:13:48.365Z,24.30
2022-08-05T10:14:46.956Z,24.36
2022-08-05T10:15:46.937Z,24.42
2022-08-05T10:16:53.113Z,24.44
2022-08-05T10:17:56.523Z,24.46
2022-08-05T10:18:48.128Z,24.51
2022-08-05T10:20:04.321Z,24.56
2022-08-05T10:20:48.526Z,24.64
2022-08-05T10:21:46.897Z,24.70
2022-08-05T10:22:48.766Z,24.77
2022-08-05T10:23:59.482Z,24.83
2022-08-05T10:24:47.835Z,24.82
2022-08-05T10:25:46.823Z,24.68
2022-08-05T10:26:52.101Z,24.66
2022-08-05T10:28:13.490Z,24.64
2022-08-05T10:28:47.879Z,24.66
2022-08-05T10:30:41.912Z,24.67
2022-08-05T10:32:49.625Z,24.68
2022-08-05T10:32:52.809Z,24.67
2022-08-05T10:33:02.200Z,24.67
2022-08-05T10:33:52.393Z,24.66
2022-08-05T10:34:47.707Z,24.61
2022-08-05T10:35:59.017Z,24.60
2022-08-05T10:36:47.744Z,24.49
2022-08-05T10:37:46.676Z,24.41
2022-08-05T10:38:46.847Z,24.36
2022-08-05T10:39:59.180Z,24.29
2022-08-05T10:40:47.688Z,24.29
2022-08-05T10:41:47.373Z,24.24
2022-08-05T10:42:46.629Z,24.24
2022-08-05T10:43:46.575Z,24.27
2022-08-05T10:44:46.627Z,24.21
2022-08-05T10:45:46.565Z,24.21
2022-08-05T10:46:46.563Z,24.24
2022-08-05T10:47:56.147Z,24.27
2022-08-05T10:48:56.381Z,24.27
2022-08-05T10:49:49.115Z,24.27
2022-08-05T10:50:47.495Z,24.27
2022-08-05T10:51:57.788Z,24.30
2022-08-05T10:52:49.721Z,24.30
2022-08-05T10:53:46.447Z,24.30
2022-08-05T10:54:46.850Z,24.30
2022-08-05T10:56:03.606Z,24.30
2022-08-05T10:56:47.429Z,24.29
2022-08-05T10:57:46.406Z,24.29
2022-08-05T10:58:49.461Z,24.29
2022-08-05T11:00:02.640Z,24.31
2022-08-05T11:00:47.363Z,24.34
2022-08-05T11:01:54.578Z,24.36
2022-08-05T11:02:50.518Z,24.39
2022-08-05T11:03:46.415Z,24.42
2022-08-05T11:04:46.313Z,24.45
2022-08-05T11:05:46.316Z,24.52
2022-08-05T11:06:46.312Z,24.59
2022-08-05T11:08:02.605Z,24.64
2022-08-05T11:08:47.274Z,24.66
2022-08-05T11:09:47.028Z,24.70
2022-08-05T11:11:00.011Z,24.79
2022-08-05T11:11:52.977Z,24.86
2022-08-05T11:12:50.882Z,24.84
2022-08-05T11:13:57.931Z,24.82
2022-08-05T11:15:11.540Z,24.89
2022-08-05T11:16:00.709Z,24.97
2022-08-05T11:16:47.707Z,25.02
2022-08-05T11:18:00.019Z,25.20
2022-08-05T11:18:47.277Z,25.41
2022-08-05T11:20:11.258Z,25.56
2022-08-05T11:20:47.113Z,25.63
2022-08-05T11:21:49.151Z,25.59
2022-08-05T11:22:54.009Z,25.46
2022-08-05T11:24:05.378Z,25.48
2022-08-05T11:24:50.696Z,25.51
2022-08-05T11:26:06.005Z,25.42
2022-08-05T11:26:49.551Z,25.48
2022-08-05T11:27:51.761Z,25.57
2022-08-05T11:28:47.015Z,25.67
2022-08-05T11:29:45.995Z,25.82
2022-08-05T11:30:45.986Z,25.94
2022-08-05T11:31:54.503Z,26.01
2022-08-05T11:32:47.940Z,26.00
2022-08-05T11:33:48.166Z,26.01
2022-08-05T11:34:47.412Z,25.96
2022-08-05T11:36:07.730Z,25.91
2022-08-05T11:36:54.120Z,25.74
2022-08-05T11:38:29.525Z,25.76
2022-08-05T11:38:51.233Z,25.82
2022-08-05T11:39:48.272Z,25.71
2022-08-05T11:40:45.880Z,25.53
2022-08-05T11:42:01.689Z,25.45
2022-08-05T11:42:46.818Z,25.59
2022-08-05T11:44:06.033Z,25.72
2022-08-05T11:44:52.919Z,25.93
2022-08-05T11:46:15.004Z,26.16
2022-08-05T11:46:58.496Z,26.11
2022-08-05T11:47:49.027Z,26.09
2022-08-05T11:48:45.768Z,26.17
2022-08-05T11:49:50.945Z,26.28
2022-08-05T11:50:46.752Z,26.41
2022-08-05T11:51:49.610Z,26.51
2022-08-05T11:52:48.212Z,26.53
2022-08-05T11:53:45.699Z,26.53
2022-08-05T11:54:48.427Z,26.53
2022-08-05T11:55:46.670Z,26.59
2022-08-05T11:56:50.049Z,26.51
2022-08-05T11:58:09.742Z,26.54
2022-08-05T11:58:51.307Z,26.46
2022-08-05T11:59:49.702Z,26.49
2022-08-05T12:00:46.939Z,26.57
2022-08-05T12:01:46.587Z,26.64
2022-08-05T12:02:45.616Z,26.73
2022-08-05T12:03:56.085Z,26.79
2022-08-05T12:04:46.549Z,26.86
2022-08-05T12:05:46.544Z,26.91
2022-08-05T12:06:48.994Z,26.96
2022-08-05T12:08:04.379Z,27.05
2022-08-05T12:08:51.065Z,27.12
2022-08-05T12:09:53.408Z,27.13
2022-08-05T12:10:46.660Z,27.23
2022-08-05T12:11:45.470Z,27.33
2022-08-05T12:12:59.259Z,27.34
2022-08-05T12:13:48.770Z,27.42
2022-08-05T12:14:47.167Z,27.40
2022-08-05T12:15:45.419Z,27.39
2022-08-05T12:16:46.388Z,27.39
2022-08-05T12:18:03.181Z,27.45
2022-08-05T12:18:49.033Z,27.55
2022-08-05T12:20:16.991Z,27.61
2022-08-05T12:20:46.360Z,27.74
2022-08-05T12:21:45.344Z,27.78
2022-08-05T12:22:46.273Z,27.81
2022-08-05T12:23:45.327Z,27.87
2022-08-05T12:24:49.584Z,27.87
2022-08-05T12:25:46.288Z,27.78
2022-08-05T12:26:45.307Z,27.74
2022-08-05T12:27:53.330Z,27.77
2022-08-05T12:28:46.453Z,27.74
2022-08-05T12:29:45.277Z,27.74
2022-08-05T12:30:46.313Z,27.77
2022-08-05T12:31:50.241Z,27.71
2022-08-05T12:32:46.208Z,27.65
2022-08-05T12:33:45.189Z,27.66
2022-08-05T12:34:45.164Z,27.62
2022-08-05T12:35:45.215Z,27.66
2022-08-05T12:36:45.182Z,27.69
2022-08-05T12:37:45.148Z,27.68
2022-08-05T12:38:45.138Z,27.62
2022-08-05T12:39:45.183Z,27.62
2022-08-05T12:40:46.109Z,27.62
2022-08-05T12:41:45.083Z,27.71
2022-08-05T12:42:45.099Z,27.80
2022-08-05T12:43:45.060Z,27.90
2022-08-05T12:44:45.047Z,27.93
2022-08-05T12:45:49.959Z,27.96
2022-08-05T12:46:46.030Z,28.03
2022-08-05T12:48:01.508Z,28.03
2022-08-05T12:48:46.015Z,28.05
2022-08-05T12:50:04.222Z,28.02
2022-08-05T12:50:45.991Z,27.95
2022-08-05T12:52:10.379Z,27.83
2022-08-05T12:52:45.993Z,27.77
2022-08-05T12:53:44.961Z,27.84